Time;durP1;ratioP1;P1;durP2;ratioP2;P2;SDS_P1;SDS_P2;PMS_P1;PMS_P2;Temp;Humidity;BMP_temperature;BMP_pressure;BME280_temperature;BME280_humidity;BME280_pressure;Samples;Min_cycle;Max_cycle;Signal;HPM_P1;HPM_P2
2020/12/20 00:00:08;;;;;;;6.32;5.72;;;25.70;63.30;;;;;;5041107;28;20234;-76
2020/12/20 00:02:39;;;;;;;9.90;6.97;;;25.60;63.20;;;;;;5040126;28;20310;-75
2020/12/20 00:05:10;;;;;;;6.75;5.88;;;25.70;63.40;;;;;;5038279;28;20316;-75
2020/12/20 00:07:41;;;;;;;7.15;5.85;;;25.60;63.30;;;;;;5042258;28;20312;-76
2020/12/20 00:10:13;;;;;;;7.35;5.68;;;25.60;63.40;;;;;;5043119;28;21174;-75
2020/12/20 00:12:45;;;;;;;8.02;6.32;;;25.60;63.40;;;;;;5039218;28;20226;-75
2020/12/20 00:15:16;;;;;;;6.43;5.72;;;25.60;63.40;;;;;;5041336;28;20226;-75
2020/12/20 00:17:50;;;;;;;6.10;5.50;;;25.60;63.40;;;;;;5042682;28;20738;-75
2020/12/20 00:20:21;;;;;;;6.15;5.55;;;25.60;63.40;;;;;;5043958;28;20288;-75
2020/12/20 00:22:51;;;;;;;7.35;5.53;;;25.60;63.50;;;;;;5040697;28;20224;-75
2020/12/20 00:25:22;;;;;;;5.90;5.30;;;25.60;63.60;;;;;;5045672;28;20620;-76
2020/12/20 00:27:55;;;;;;;5.68;5.05;;;25.60;63.70;;;;;;5045283;28;20586;-76
2020/12/20 00:30:25;;;;;;;8.45;5.25;;;25.60;63.50;;;;;;5046772;28;20229;-75
2020/12/20 00:32:56;;;;;;;6.35;5.40;;;25.60;63.50;;;;;;5044321;28;20233;-75
2020/12/20 00:35:26;;;;;;;6.03;5.43;;;25.60;63.30;;;;;;5047037;28;20654;-74
2020/12/20 00:37:57;;;;;;;5.65;5.15;;;25.70;63.30;;;;;;5048732;28;20226;-74
2020/12/20 00:40:27;;;;;;;6.57;5.30;;;25.60;63.30;;;;;;5049614;28;20262;-74
2020/12/20 00:42:59;;;;;;;6.80;5.47;;;25.70;63.50;;;;;;5047197;28;20245;-75
2020/12/20 00:45:30;;;;;;;7.43;5.03;;;25.70;63.50;;;;;;5044893;28;20225;-75
2020/12/20 00:48:00;;;;;;;7.05;4.75;;;25.70;63.30;;;;;;5043692;28;20230;-75
2020/12/20 00:50:31;;;;;;;5.05;4.53;;;25.80;63.20;;;;;;5042331;28;20231;-75
2020/12/20 00:53:02;;;;;;;5.25;4.28;;;25.80;63.00;;;;;;5040653;28;20237;-74
2020/12/20 00:55:33;;;;;;;5.85;4.78;;;25.80;62.90;;;;;;5042250;28;20253;-76
2020/12/20 00:58:05;;;;;;;6.78;4.45;;;25.80;62.70;;;;;;5048849;28;20709;-76
2020/12/20 01:00:36;;;;;;;4.85;4.40;;;25.90;62.70;;;;;;5047595;28;20773;-75
2020/12/20 01:03:06;;;;;;;4.55;4.10;;;25.80;62.40;;;;;;5045914;28;20225;-75
2020/12/20 01:05:37;;;;;;;4.60;4.20;;;25.80;62.50;;;;;;5046767;28;20901;-76
2020/12/20 01:08:09;;;;;;;4.43;4.03;;;25.90;62.50;;;;;;5046950;28;20229;-75
2020/12/20 01:10:40;;;;;;;4.85;4.32;;;25.90;62.40;;;;;;5047347;28;20278;-75
2020/12/20 01:13:12;;;;;;;4.68;4.28;;;25.90;62.30;;;;;;5053132;28;20730;-75
2020/12/20 01:15:42;;;;;;;4.10;3.70;;;25.90;62.30;;;;;;5048773;28;20221;-75
2020/12/20 01:18:13;;;;;;;4.30;3.90;;;25.90;62.20;;;;;;5049931;28;20241;-74
2020/12/20 01:20:44;;;;;;;5.40;4.40;;;26.00;62.10;;;;;;5047819;28;20254;-75
2020/12/20 01:23:15;;;;;;;4.50;3.83;;;26.00;61.60;;;;;;5048293;28;20254;-75
2020/12/20 01:25:45;;;;;;;6.00;4.38;;;26.00;61.60;;;;;;5050974;28;20256;-74
2020/12/20 01:28:18;;;;;;;4.55;4.15;;;26.00;61.40;;;;;;5049395;28;20248;-75
2020/12/20 01:30:49;;;;;;;8.63;4.68;;;26.10;61.20;;;;;;5049343;28;20717;-75
2020/12/20 01:33:19;;;;;;;4.38;3.97;;;26.10;61.10;;;;;;5047454;28;20222;-76
2020/12/20 01:35:51;;;;;;;4.38;3.97;;;26.10;61.10;;;;;;5047882;28;20230;-75
2020/12/20 01:38:22;;;;;;;4.40;3.60;;;26.10;60.90;;;;;;5034825;28;20230;-74
2020/12/20 01:40:53;;;;;;;4.20;3.50;;;26.20;61.20;;;;;;5034439;28;20257;-75
2020/12/20 01:43:25;;;;;;;5.82;4.20;;;26.20;61.20;;;;;;5036872;28;20233;-75
2020/12/20 01:45:56;;;;;;;5.32;3.95;;;26.20;61.00;;;;;;5035855;28;20238;-74
2020/12/20 01:48:27;;;;;;;4.35;4.03;;;26.20;60.70;;;;;;5034237;28;20313;-75
2020/12/20 01:50:57;;;;;;;4.07;3.67;;;26.30;60.80;;;;;;5035138;28;20225;-75
2020/12/20 01:53:28;;;;;;;4.63;3.70;;;26.30;60.90;;;;;;5035988;28;20240;-74
2020/12/20 01:56:01;;;;;;;6.63;3.58;;;26.30;60.90;;;;;;5037038;28;20248;-75
2020/12/20 01:58:36;;;;;;;4.60;4.20;;;26.30;61.00;;;;;;5035058;28;20320;-75
2020/12/20 02:01:07;;;;;;;4.22;3.83;;;26.40;60.70;;;;;;5032054;28;20234;-75
2020/12/20 02:03:38;;;;;;;4.47;3.63;;;26.40;60.80;;;;;;5030638;28;20775;-75
2020/12/20 02:06:12;;;;;;;5.22;4.15;;;26.50;60.80;;;;;;5034873;28;20274;-75
2020/12/20 02:08:43;;;;;;;6.88;4.20;;;26.50;60.30;;;;;;5005554;28;20230;-74
2020/12/20 02:11:15;;;;;;;6.15;4.10;;;26.60;60.30;;;;;;5006142;28;20288;-75
2020/12/20 02:13:48;;;;;;;5.70;4.30;;;26.60;60.20;;;;;;5008288;28;20250;-75
2020/12/20 02:16:19;;;;;;;4.75;4.35;;;26.60;60.20;;;;;;5012236;28;21026;-75
2020/12/20 02:18:50;;;;;;;4.43;4.03;;;26.70;60.20;;;;;;5006487;28;20230;-75
2020/12/20 02:21:23;;;;;;;4.50;4.10;;;26.70;60.10;;;;;;5013232;28;21174;-76
2020/12/20 02:23:53;;;;;;;4.53;4.10;;;26.70;60.00;;;;;;5007937;28;20325;-75
2020/12/20 02:26:24;;;;;;;4.80;4.30;;;26.70;60.00;;;;;;5005754;28;20567;-74
2020/12/20 02:28:55;;;;;;;5.13;4.55;;;26.80;60.10;;;;;;5012660;28;20291;-75
2020/12/20 02:31:26;;;;;;;4.90;4.40;;;26.80;60.00;;;;;;5002495;28;20598;-76
2020/12/20 02:33:57;;;;;;;5.53;4.20;;;26.80;60.00;;;;;;5037869;28;20232;-76
2020/12/20 02:36:29;;;;;;;5.10;4.10;;;26.90;60.20;;;;;;5044214;28;20229;-76
2020/12/20 02:39:01;;;;;;;4.22;3.83;;;26.90;60.00;;;;;;5045960;28;20230;-76
2020/12/20 02:41:32;;;;;;;4.45;3.97;;;26.90;60.30;;;;;;5050176;28;20313;-76
2020/12/20 02:44:03;;;;;;;4.60;4.00;;;27.00;60.20;;;;;;5047908;28;20255;-76
2020/12/20 02:46:33;;;;;;;6.95;3.90;;;27.10;60.00;;;;;;5046544;28;20648;-76
2020/12/20 02:49:04;;;;;;;5.78;3.70;;;27.10;60.00;;;;;;5050433;28;20684;-75
2020/12/20 02:51:40;;;;;;;5.47;3.55;;;27.20;59.80;;;;;;5050315;28;20233;-77
2020/12/20 02:54:12;;;;;;;4.80;4.05;;;27.20;59.70;;;;;;5048736;28;20302;-76
2020/12/20 02:56:46;;;;;;;4.20;3.65;;;27.30;59.70;;;;;;5050157;28;20229;-77
2020/12/20 02:59:16;;;;;;;4.78;4.28;;;27.40;59.50;;;;;;5050551;28;20239;-76
2020/12/20 03:01:47;;;;;;;4.22;3.50;;;27.50;59.30;;;;;;5050213;28;20229;-76
2020/12/20 03:04:18;;;;;;;5.32;3.72;;;27.60;59.50;;;;;;5048600;28;20698;-76
2020/12/20 03:06:51;;;;;;;4.10;3.70;;;27.60;59.40;;;;;;5048411;28;20825;-76
2020/12/20 03:09:22;;;;;;;5.65;4.22;;;27.70;59.30;;;;;;5050423;28;20264;-76
2020/12/20 03:11:52;;;;;;;7.38;3.92;;;27.70;58.90;;;;;;5049602;28;20317;-76
2020/12/20 03:14:23;;;;;;;3.80;3.50;;;27.80;58.70;;;;;;5050189;28;20244;-75
2020/12/20 03:16:54;;;;;;;3.92;3.53;;;27.90;58.30;;;;;;5049756;28;20233;-76
2020/12/20 03:19:25;;;;;;;4.20;3.80;;;27.90;57.80;;;;;;5049773;28;20634;-76
2020/12/20 03:21:56;;;;;;;3.75;3.35;;;28.00;57.60;;;;;;5050087;28;20241;-77
2020/12/20 03:24:27;;;;;;;5.20;3.53;;;28.00;57.70;;;;;;5053240;28;20720;-76
2020/12/20 03:26:57;;;;;;;4.85;3.35;;;28.00;57.70;;;;;;5049977;28;20283;-76
2020/12/20 03:29:28;;;;;;;4.82;3.40;;;28.10;57.80;;;;;;5047958;28;20248;-76
2020/12/20 03:31:59;;;;;;;4.05;3.58;;;28.10;57.60;;;;;;5051529;28;20686;-75
2020/12/20 03:34:29;;;;;;;4.70;3.45;;;28.20;57.60;;;;;;5051170;28;20237;-75
2020/12/20 03:37:01;;;;;;;4.95;3.53;;;28.20;57.30;;;;;;5049911;28;20229;-76
2020/12/20 03:39:32;;;;;;;3.35;3.05;;;28.20;57.50;;;;;;5048172;28;20225;-76
2020/12/20 03:42:03;;;;;;;3.78;3.28;;;28.30;57.50;;;;;;5048608;28;20787;-75
2020/12/20 03:44:34;;;;;;;3.72;3.42;;;28.30;57.10;;;;;;5049431;28;20428;-76
2020/12/20 03:47:05;;;;;;;4.18;3.30;;;28.40;57.20;;;;;;5049740;28;20240;-76
2020/12/20 03:49:35;;;;;;;4.55;3.08;;;28.50;57.10;;;;;;5049073;28;20226;-76
2020/12/20 03:52:08;;;;;;;4.78;3.53;;;28.50;57.70;;;;;;5029972;28;20790;-77
2020/12/20 03:54:39;;;;;;;4.35;3.22;;;28.60;56.40;;;;;;5029412;28;20233;-76
2020/12/20 03:57:10;;;;;;;4.43;3.33;;;28.60;56.20;;;;;;5029608;28;20269;-76
2020/12/20 03:59:40;;;;;;;6.90;2.75;;;28.70;56.10;;;;;;5033207;28;20230;-76
2020/12/20 04:02:11;;;;;;;4.22;3.10;;;28.80;56.50;;;;;;5052162;28;20232;-75
2020/12/20 04:04:42;;;;;;;3.10;2.85;;;28.80;56.50;;;;;;5052988;28;20240;-75
2020/12/20 04:07:14;;;;;;;3.60;3.30;;;28.90;56.50;;;;;;5053283;28;21014;-77
2020/12/20 04:09:45;;;;;;;5.35;3.10;;;28.90;55.40;;;;;;5053506;28;20316;-77
2020/12/20 04:12:16;;;;;;;4.15;3.35;;;29.00;55.40;;;;;;5052946;28;20221;-76
2020/12/20 04:14:47;;;;;;;3.70;3.10;;;29.00;56.40;;;;;;5053992;28;20241;-74
2020/12/20 04:17:17;;;;;;;3.65;3.03;;;29.10;55.80;;;;;;5053184;28;20669;-75
2020/12/20 04:19:48;;;;;;;6.63;3.42;;;29.10;56.30;;;;;;5052948;28;20312;-75
2020/12/20 04:22:20;;;;;;;3.42;2.90;;;29.20;55.20;;;;;;5052504;28;20666;-74
2020/12/20 04:24:50;;;;;;;3.90;2.92;;;29.20;55.30;;;;;;5053044;28;20242;-75
2020/12/20 04:27:24;;;;;;;3.45;2.50;;;29.30;55.40;;;;;;5053660;28;20603;-76
2020/12/20 04:29:54;;;;;;;3.65;3.33;;;29.40;55.50;;;;;;5053141;28;20241;-75
2020/12/20 04:32:25;;;;;;;5.35;3.80;;;29.40;55.00;;;;;;5052168;28;20317;-76
2020/12/20 04:34:56;;;;;;;7.82;3.72;;;29.50;55.00;;;;;;5053915;28;20313;-76
2020/12/20 04:37:28;;;;;;;8.27;3.33;;;29.60;55.00;;;;;;5052206;28;20638;-76
2020/12/20 04:39:58;;;;;;;5.22;3.03;;;29.60;54.90;;;;;;5053442;28;20265;-76
2020/12/20 04:42:29;;;;;;;4.72;3.63;;;29.70;54.70;;;;;;5051976;28;20268;-77
2020/12/20 04:45:00;;;;;;;3.13;2.83;;;29.70;54.10;;;;;;5053534;28;20233;-76
2020/12/20 04:47:31;;;;;;;3.50;3.10;;;29.80;54.80;;;;;;5053155;28;20260;-77
2020/12/20 04:50:02;;;;;;;3.72;3.40;;;29.80;54.50;;;;;;5052964;28;20239;-77
2020/12/20 04:52:34;;;;;;;5.07;3.42;;;29.90;53.60;;;;;;5052019;28;20279;-77
2020/12/20 04:55:05;;;;;;;3.75;2.90;;;30.00;53.60;;;;;;5052674;28;20745;-77
2020/12/20 04:57:35;;;;;;;4.90;2.88;;;30.00;53.80;;;;;;5055759;28;20230;-77
2020/12/20 05:00:06;;;;;;;3.50;3.20;;;30.10;54.30;;;;;;5011096;28;20271;-77
2020/12/20 05:02:37;;;;;;;4.05;3.35;;;30.10;53.80;;;;;;5009284;28;20251;-76
2020/12/20 05:05:08;;;;;;;3.38;3.05;;;30.20;53.70;;;;;;5009305;28;20241;-76
2020/12/20 05:07:41;;;;;;;3.50;3.00;;;30.20;53.60;;;;;;5009605;28;20335;-77
2020/12/20 05:10:12;;;;;;;3.80;3.13;;;30.30;53.70;;;;;;5010165;28;20231;-76
2020/12/20 05:12:43;;;;;;;3.97;3.15;;;30.30;53.50;;;;;;5024077;28;20230;-76
2020/12/20 05:15:20;;;;;;;3.95;3.13;;;30.40;53.30;;;;;;5009994;28;20234;-76
2020/12/20 05:17:52;;;;;;;5.55;3.08;;;30.50;53.30;;;;;;5009459;28;20297;-77
2020/12/20 05:20:37;;;;;;;4.72;3.03;;;30.50;53.50;;;;;;5009809;28;20231;-76
2020/12/20 05:23:09;;;;;;;3.80;2.63;;;30.60;52.80;;;;;;5012625;28;20234;-77
2020/12/20 05:25:40;;;;;;;3.28;3.00;;;30.60;52.60;;;;;;5047489;28;20699;-77
2020/12/20 05:28:12;;;;;;;2.65;2.45;;;30.70;52.60;;;;;;5052308;28;20249;-77
2020/12/20 05:30:43;;;;;;;3.00;2.70;;;30.80;52.70;;;;;;5054922;28;20690;-77
2020/12/20 05:33:24;;;;;;;5.40;3.13;;;30.80;52.40;;;;;;5051879;28;20284;-75
2020/12/20 05:36:00;;;;;;;3.40;3.00;;;30.90;52.20;;;;;;5043080;28;20236;-76
2020/12/20 05:38:35;;;;;;;4.57;3.17;;;30.90;51.60;;;;;;5042219;28;20233;-76
2020/12/20 05:41:08;;;;;;;3.22;2.85;;;30.90;51.70;;;;;;5032591;28;20316;-75
2020/12/20 05:43:40;;;;;;;4.97;3.20;;;31.00;51.80;;;;;;5041333;28;20238;-75
2020/12/20 05:46:15;;;;;;;4.00;2.60;;;31.00;51.50;;;;;;5043524;28;20271;-76
2020/12/20 05:48:46;;;;;;;4.10;3.15;;;31.00;51.60;;;;;;4928181;29;20245;-76
2020/12/20 05:51:18;;;;;;;5.38;2.78;;;31.10;51.40;;;;;;4927441;29;20584;-77
2020/12/20 05:53:49;;;;;;;3.83;2.90;;;31.10;51.80;;;;;;4919946;29;20243;-77
2020/12/20 05:56:23;;;;;;;3.63;3.33;;;31.20;51.60;;;;;;4925510;29;20260;-76
2020/12/20 05:58:56;;;;;;;3.83;3.20;;;31.20;51.20;;;;;;4927788;29;20291;-76
2020/12/20 06:01:27;;;;;;;4.22;3.45;;;31.30;51.20;;;;;;4951140;28;20239;-75
2020/12/20 06:03:58;;;;;;;6.45;3.72;;;31.30;51.40;;;;;;4944095;28;20337;-75
2020/12/20 06:06:32;;;;;;;4.00;3.35;;;31.30;51.40;;;;;;4951984;28;20255;-76
2020/12/20 06:09:06;;;;;;;6.60;3.60;;;31.40;51.50;;;;;;4957005;28;20323;-75
2020/12/20 06:11:37;;;;;;;3.35;3.05;;;31.40;51.30;;;;;;4956348;28;20316;-77
2020/12/20 06:14:08;;;;;;;3.78;3.40;;;31.50;51.20;;;;;;4958211;28;20224;-76
2020/12/20 06:16:39;;;;;;;3.50;3.20;;;31.50;51.10;;;;;;4895187;29;21626;-77
2020/12/20 06:19:10;;;;;;;3.45;3.15;;;31.60;51.00;;;;;;4901967;28;20384;-76
2020/12/20 06:21:54;;;;;;;3.80;3.00;;;31.60;51.50;;;;;;4986070;28;20227;-76
2020/12/20 06:24:27;;;;;;;3.42;3.13;;;31.60;50.40;;;;;;4986081;28;20323;-77
2020/12/20 06:26:59;;;;;;;5.40;3.33;;;31.70;50.40;;;;;;4986385;28;20846;-76
2020/12/20 06:29:30;;;;;;;4.35;3.15;;;31.70;50.50;;;;;;4985150;28;20262;-74
2020/12/20 06:32:04;;;;;;;4.15;3.75;;;31.70;50.80;;;;;;4985929;28;20236;-74
2020/12/20 06:34:35;;;;;;;5.88;3.40;;;31.70;50.00;;;;;;4976709;28;20232;-73
2020/12/20 06:37:05;;;;;;;6.63;3.58;;;31.70;50.00;;;;;;4964281;28;20240;-75
2020/12/20 06:39:41;;;;;;;5.90;3.53;;;31.70;50.30;;;;;;4964955;28;20228;-75
2020/12/20 06:42:12;;;;;;;4.60;3.45;;;31.70;49.90;;;;;;4966882;28;20228;-74
2020/12/20 06:44:43;;;;;;;3.45;3.15;;;31.70;50.20;;;;;;4992537;28;20235;-75
2020/12/20 06:47:14;;;;;;;4.57;3.65;;;31.60;50.00;;;;;;5007472;28;20771;-74
2020/12/20 06:49:45;;;;;;;6.47;3.50;;;31.60;49.70;;;;;;5030217;28;20230;-74
2020/12/20 06:52:24;;;;;;;5.10;3.83;;;31.60;49.90;;;;;;4994823;28;20271;-74
2020/12/20 06:55:19;;;;;;;4.80;3.42;;;31.60;50.20;;;;;;4992359;28;20662;-74
2020/12/20 06:58:17;;;;;;;3.50;3.20;;;31.60;50.50;;;;;;4983660;28;20239;-74
2020/12/20 07:00:52;;;;;;;4.55;4.10;;;31.60;50.30;;;;;;4994535;28;20242;-75
2020/12/20 07:03:47;;;;;;;4.50;3.20;;;31.60;50.10;;;;;;4993646;28;20256;-74
2020/12/20 07:06:19;;;;;;;3.75;3.30;;;31.60;50.50;;;;;;4992744;28;20851;-75
2020/12/20 07:08:59;;;;;;;3.47;3.17;;;31.60;50.60;;;;;;5023279;28;20239;-74
2020/12/20 07:11:32;;;;;;;4.00;3.42;;;31.60;50.70;;;;;;5032094;28;20347;-76
2020/12/20 07:14:07;;;;;;;5.20;3.20;;;31.70;50.20;;;;;;5032801;28;20316;-74
2020/12/20 07:16:42;;;;;;;3.80;3.50;;;31.70;50.10;;;;;;4953334;28;20236;-74
2020/12/20 07:19:16;;;;;;;4.65;3.17;;;31.70;50.20;;;;;;4951889;28;20252;-74
2020/12/20 07:21:48;;;;;;;3.40;3.10;;;31.70;50.10;;;;;;4858033;29;20302;-74
2020/12/20 07:24:19;;;;;;;4.10;3.70;;;31.70;49.80;;;;;;4856289;29;20336;-74
2020/12/20 07:26:56;;;;;;;4.65;3.30;;;31.70;49.70;;;;;;4858982;29;20254;-74
2020/12/20 07:29:27;;;;;;;4.00;3.60;;;31.70;50.00;;;;;;4856479;29;20247;-74
2020/12/20 07:31:59;;;;;;;3.67;3.38;;;31.70;50.20;;;;;;4857220;29;20244;-74
2020/12/20 07:34:31;;;;;;;5.60;3.60;;;31.70;50.10;;;;;;4856577;29;20368;-74
2020/12/20 07:37:01;;;;;;;4.22;2.90;;;31.60;50.00;;;;;;4855722;29;20236;-74
2020/12/20 07:39:32;;;;;;;4.28;3.50;;;31.70;49.90;;;;;;4855633;29;20239;-74
2020/12/20 07:42:05;;;;;;;3.40;3.10;;;31.60;49.70;;;;;;4858800;29;20244;-75
2020/12/20 07:44:36;;;;;;;3.90;3.50;;;31.60;50.00;;;;;;4854825;29;20789;-74
2020/12/20 07:47:14;;;;;;;3.67;3.35;;;31.70;50.00;;;;;;4886546;28;20700;-75
2020/12/20 07:49:45;;;;;;;3.10;2.80;;;31.60;49.90;;;;;;4950353;28;20228;-75
2020/12/20 07:52:16;;;;;;;3.20;2.78;;;31.70;50.20;;;;;;4967137;28;20748;-75
2020/12/20 07:54:47;;;;;;;3.50;3.20;;;31.70;50.20;;;;;;5019170;28;20228;-75
2020/12/20 07:57:21;;;;;;;2.97;2.78;;;31.70;50.20;;;;;;5052560;28;20252;-75
2020/12/20 08:00:04;;;;;;;3.08;2.88;;;31.70;49.90;;;;;;5053170;28;20225;-75
2020/12/20 08:02:37;;;;;;;4.40;4.00;;;31.70;50.10;;;;;;5053632;28;20280;-76
2020/12/20 08:05:08;;;;;;;5.07;4.05;;;31.80;49.50;;;;;;5048819;28;20656;-75
2020/12/20 08:07:39;;;;;;;4.53;3.58;;;31.70;49.30;;;;;;5049192;28;20302;-76
2020/12/20 08:10:10;;;;;;;2.75;2.55;;;31.70;49.20;;;;;;5053276;28;20259;-75
2020/12/20 08:12:53;;;;;;;4.18;2.60;;;31.70;49.20;;;;;;5053667;28;20237;-76
2020/12/20 08:15:23;;;;;;;3.08;2.80;;;31.70;49.40;;;;;;5052183;28;20313;-76
2020/12/20 08:17:54;;;;;;;3.63;2.85;;;31.70;49.50;;;;;;5052779;28;20244;-75
2020/12/20 08:20:25;;;;;;;4.55;2.58;;;31.80;49.80;;;;;;5054244;28;20232;-75
2020/12/20 08:22:56;;;;;;;3.10;2.80;;;31.80;49.80;;;;;;5052465;28;20295;-75
2020/12/20 08:25:37;;;;;;;3.78;3.25;;;31.80;49.60;;;;;;5051501;28;20328;-76
2020/12/20 08:28:09;;;;;;;3.00;2.80;;;31.90;49.50;;;;;;5053842;28;20240;-75
2020/12/20 08:30:40;;;;;;;4.28;2.92;;;31.90;49.30;;;;;;5054413;28;20313;-75
2020/12/20 08:33:11;;;;;;;6.43;3.00;;;31.90;49.20;;;;;;5054565;28;20244;-76
2020/12/20 08:35:41;;;;;;;4.60;3.53;;;31.90;49.20;;;;;;5050448;28;20291;-75
2020/12/20 08:38:12;;;;;;;4.03;3.05;;;31.90;49.10;;;;;;5053102;28;20234;-76
2020/12/20 08:40:43;;;;;;;3.33;3.03;;;32.00;49.30;;;;;;5002501;28;20918;-75
2020/12/20 08:43:15;;;;;;;6.93;2.90;;;32.00;49.50;;;;;;5001800;28;20398;-75
2020/12/20 08:45:46;;;;;;;3.00;2.78;;;32.10;49.50;;;;;;4965998;28;20246;-76
2020/12/20 08:48:17;;;;;;;3.53;3.15;;;32.10;49.40;;;;;;4965304;28;20314;-76
2020/12/20 08:50:48;;;;;;;3.85;3.10;;;32.20;49.50;;;;;;4907163;29;22120;-75
2020/12/20 08:53:18;;;;;;;3.13;2.75;;;32.20;48.80;;;;;;4870777;29;20267;-75
2020/12/20 08:55:49;;;;;;;3.13;2.70;;;32.20;48.50;;;;;;4870959;29;21914;-75
2020/12/20 08:58:20;;;;;;;3.63;2.70;;;32.30;48.30;;;;;;4870953;29;20236;-75
2020/12/20 09:00:58;;;;;;;3.50;2.58;;;32.30;48.30;;;;;;4871386;29;20255;-76
2020/12/20 09:03:30;;;;;;;3.55;2.50;;;32.30;48.50;;;;;;4832431;29;20240;-75
2020/12/20 09:06:13;;;;;;;3.30;3.00;;;32.30;48.50;;;;;;4864585;29;20395;-76
2020/12/20 09:08:45;;;;;;;4.07;3.15;;;32.30;48.20;;;;;;4870316;29;21103;-76
2020/12/20 09:11:28;;;;;;;3.10;2.78;;;32.30;48.10;;;;;;4872188;29;20273;-75
2020/12/20 09:14:10;;;;;;;5.50;2.92;;;32.30;48.50;;;;;;4871789;29;20259;-76
2020/12/20 09:16:44;;;;;;;3.38;3.00;;;32.30;48.20;;;;;;4882830;29;20237;-75
2020/12/20 09:19:15;;;;;;;3.40;3.10;;;32.30;48.00;;;;;;4897660;29;20355;-76
2020/12/20 09:21:50;;;;;;;3.28;2.97;;;32.30;48.40;;;;;;4921136;28;20237;-76
2020/12/20 09:24:29;;;;;;;2.97;2.75;;;32.30;48.30;;;;;;4986865;28;20245;-75
2020/12/20 09:27:00;;;;;;;3.17;2.42;;;32.30;48.10;;;;;;5007522;28;20223;-75
2020/12/20 09:29:32;;;;;;;2.95;2.70;;;32.30;48.50;;;;;;5006748;28;20317;-76
2020/12/20 09:32:10;;;;;;;3.00;2.80;;;32.30;48.30;;;;;;5007869;28;20701;-76
2020/12/20 09:34:41;;;;;;;3.95;2.90;;;32.30;47.90;;;;;;4929863;28;20252;-77
2020/12/20 09:37:12;;;;;;;3.15;2.85;;;32.30;48.00;;;;;;4941273;28;20265;-77
2020/12/20 09:39:59;;;;;;;3.92;2.65;;;32.30;48.30;;;;;;4944460;28;20323;-76
2020/12/20 09:42:29;;;;;;;3.70;2.45;;;32.30;48.50;;;;;;4942837;28;20752;-75
2020/12/20 09:45:01;;;;;;;3.15;2.85;;;32.40;48.50;;;;;;4921700;29;20241;-75
2020/12/20 09:47:32;;;;;;;3.03;2.72;;;32.50;48.20;;;;;;4926565;29;20253;-75
2020/12/20 09:50:02;;;;;;;3.25;2.95;;;32.50;48.00;;;;;;4923750;29;20229;-75
2020/12/20 09:52:34;;;;;;;3.22;2.65;;;32.60;47.90;;;;;;4930834;29;20230;-76
2020/12/20 09:55:06;;;;;;;4.53;2.85;;;32.60;47.60;;;;;;4930844;28;20238;-75
2020/12/20 09:57:37;;;;;;;3.55;2.83;;;32.60;47.50;;;;;;4926592;28;20235;-75
2020/12/20 10:00:09;;;;;;;3.67;2.97;;;32.50;47.50;;;;;;4954321;28;20936;-76
2020/12/20 10:02:40;;;;;;;3.63;3.25;;;32.40;47.60;;;;;;4968270;28;20886;-77
2020/12/20 10:05:11;;;;;;;6.90;3.42;;;32.30;47.70;;;;;;4976661;28;20756;-75
2020/12/20 10:07:42;;;;;;;5.47;2.95;;;32.20;47.70;;;;;;5010054;28;20238;-75
2020/12/20 10:10:13;;;;;;;3.17;2.88;;;32.20;47.90;;;;;;5044399;28;20234;-75
2020/12/20 10:12:44;;;;;;;4.85;3.72;;;32.10;48.20;;;;;;5049022;28;20235;-76
2020/12/20 10:15:16;;;;;;;4.00;3.60;;;32.10;48.20;;;;;;5047744;28;20233;-75
2020/12/20 10:17:48;;;;;;;3.30;2.90;;;32.00;48.20;;;;;;5050252;28;20257;-75
2020/12/20 10:20:18;;;;;;;3.63;3.33;;;32.00;48.40;;;;;;5049256;28;20245;-74
2020/12/20 10:22:49;;;;;;;3.05;2.80;;;32.00;48.60;;;;;;5048461;28;20234;-76
2020/12/20 10:25:19;;;;;;;3.83;2.92;;;32.00;48.70;;;;;;5047476;28;20233;-76
2020/12/20 10:27:50;;;;;;;4.82;2.97;;;32.00;49.40;;;;;;5050169;28;20226;-76
2020/12/20 10:30:22;;;;;;;3.42;3.13;;;31.90;48.70;;;;;;5049649;28;20729;-76
2020/12/20 10:32:54;;;;;;;5.05;2.88;;;31.90;48.70;;;;;;5049848;28;20229;-76
2020/12/20 10:35:27;;;;;;;4.63;2.78;;;31.90;48.80;;;;;;5047612;28;20226;-75
2020/12/20 10:37:58;;;;;;;3.40;2.97;;;31.90;48.90;;;;;;5047977;28;20234;-76
2020/12/20 10:40:29;;;;;;;3.50;3.20;;;31.80;49.00;;;;;;5047541;28;20263;-76
2020/12/20 10:42:59;;;;;;;3.40;3.10;;;31.70;49.10;;;;;;5042058;28;20279;-76
2020/12/20 10:45:31;;;;;;;6.65;3.72;;;31.70;49.20;;;;;;5046326;28;20233;-76
2020/12/20 10:48:02;;;;;;;5.00;3.75;;;31.60;49.30;;;;;;5036637;28;20244;-75
2020/12/20 10:50:33;;;;;;;5.35;4.57;;;31.60;49.30;;;;;;5046869;28;20261;-75
2020/12/20 10:53:04;;;;;;;9.23;4.25;;;31.50;49.30;;;;;;5046297;28;20233;-76
2020/12/20 10:55:39;;;;;;;5.00;4.50;;;31.30;49.40;;;;;;5047565;28;20223;-76
2020/12/20 10:58:09;;;;;;;4.80;4.35;;;31.30;49.50;;;;;;5047212;28;20233;-76
2020/12/20 11:00:41;;;;;;;5.32;4.35;;;31.20;49.70;;;;;;5046595;28;20225;-75
2020/12/20 11:03:12;;;;;;;5.15;4.65;;;31.10;49.80;;;;;;5049284;28;20245;-76
2020/12/20 11:05:43;;;;;;;5.75;4.97;;;30.90;50.00;;;;;;5051564;28;20729;-76
2020/12/20 11:08:15;;;;;;;5.95;5.35;;;30.90;50.20;;;;;;5054570;28;20230;-76
2020/12/20 11:10:46;;;;;;;19.10;17.25;;;30.80;50.40;;;;;;5054299;28;21020;-76
2020/12/20 11:13:17;;;;;;;14.07;12.65;;;30.70;50.70;;;;;;5053504;28;20298;-75
2020/12/20 11:15:52;;;;;;;14.77;11.35;;;30.60;50.90;;;;;;5048977;28;20607;-75
2020/12/20 11:18:23;;;;;;;29.17;25.35;;;30.60;51.30;;;;;;5053505;28;20727;-76
2020/12/20 11:20:57;;;;;;;28.08;22.30;;;30.50;51.40;;;;;;5052280;28;20225;-75
2020/12/20 11:23:27;;;;;;;32.33;25.63;;;30.40;51.70;;;;;;5050784;28;20324;-76
2020/12/20 11:26:11;;;;;;;34.13;26.98;;;30.40;51.90;;;;;;5053338;28;20237;-75
2020/12/20 11:28:46;;;;;;;30.42;24.55;;;30.40;52.10;;;;;;5053545;28;20308;-76
2020/12/20 11:31:18;;;;;;;21.70;16.73;;;30.30;52.10;;;;;;5045963;28;20236;-75
2020/12/20 11:33:52;;;;;;;18.60;13.45;;;30.30;52.50;;;;;;5050912;28;20241;-75
2020/12/20 11:36:23;;;;;;;13.35;9.77;;;30.30;52.70;;;;;;5053380;28;20276;-75
2020/12/20 11:38:54;;;;;;;9.88;6.93;;;30.20;52.80;;;;;;5052229;28;20232;-76
2020/12/20 11:41:25;;;;;;;6.95;6.03;;;30.20;52.90;;;;;;5053026;28;20228;-76
2020/12/20 11:43:55;;;;;;;11.63;9.15;;;30.20;53.00;;;;;;5053003;28;20276;-75
2020/12/20 11:46:32;;;;;;;16.33;11.05;;;30.10;52.80;;;;;;5053552;28;20260;-76
2020/12/20 11:49:03;;;;;;;15.77;12.07;;;30.10;53.10;;;;;;5051665;28;20234;-76
2020/12/20 11:51:34;;;;;;;14.27;10.95;;;30.10;53.30;;;;;;5052073;28;20287;-76
2020/12/20 11:54:04;;;;;;;13.18;9.65;;;30.10;53.50;;;;;;5051145;28;20249;-74
2020/12/20 11:56:35;;;;;;;11.57;8.25;;;30.10;53.40;;;;;;5050840;28;20337;-74
2020/12/20 11:59:09;;;;;;;11.93;8.98;;;30.00;53.40;;;;;;5051372;28;20221;-74
2020/12/20 12:01:42;;;;;;;11.57;8.85;;;30.00;53.50;;;;;;5054417;28;20229;-74
2020/12/20 12:04:17;;;;;;;11.27;9.02;;;30.00;53.80;;;;;;5051038;28;20233;-74
2020/12/20 12:06:48;;;;;;;10.15;8.93;;;30.00;53.90;;;;;;5052415;28;20315;-74
2020/12/20 12:09:22;;;;;;;12.18;9.48;;;29.90;53.80;;;;;;5051272;28;20612;-74
2020/12/20 12:11:53;;;;;;;14.65;9.25;;;29.90;54.00;;;;;;5051146;28;20660;-74
2020/12/20 12:14:24;;;;;;;15.27;12.07;;;29.90;54.10;;;;;;5043985;28;20232;-74
2020/12/20 12:17:01;;;;;;;15.35;13.10;;;29.80;54.10;;;;;;5054321;28;20237;-74
2020/12/20 12:19:31;;;;;;;14.18;11.82;;;29.80;54.30;;;;;;5051515;28;20228;-74
2020/12/20 12:22:02;;;;;;;17.13;12.93;;;29.70;54.50;;;;;;5054662;28;20230;-74
2020/12/20 12:24:35;;;;;;;22.48;17.38;;;29.70;54.90;;;;;;5061122;28;20262;-74
2020/12/20 12:27:06;;;;;;;19.70;14.85;;;29.60;55.00;;;;;;5054338;28;20237;-74
2020/12/20 12:29:38;;;;;;;19.27;15.35;;;29.60;55.00;;;;;;5054795;28;20302;-74
2020/12/20 12:32:11;;;;;;;19.35;15.75;;;29.60;55.30;;;;;;5054801;28;20244;-74
2020/12/20 12:34:43;;;;;;;15.95;12.30;;;29.50;55.30;;;;;;5053933;28;20250;-74
2020/12/20 12:37:13;;;;;;;16.55;11.77;;;29.50;55.40;;;;;;5046174;28;20226;-74
2020/12/20 12:39:46;;;;;;;16.02;12.75;;;29.40;55.50;;;;;;5053841;28;20241;-74
2020/12/20 12:42:18;;;;;;;14.93;12.50;;;29.40;55.50;;;;;;5049416;28;20241;-74
2020/12/20 12:44:49;;;;;;;14.07;11.70;;;29.40;55.80;;;;;;5065424;28;20230;-73
2020/12/20 12:47:25;;;;;;;13.63;10.75;;;29.30;55.80;;;;;;5059060;28;20239;-74
2020/12/20 12:49:56;;;;;;;12.77;10.65;;;29.30;56.00;;;;;;5042253;28;20234;-74
2020/12/20 12:52:26;;;;;;;13.02;11.05;;;29.20;56.00;;;;;;5044420;28;20272;-74
2020/12/20 12:55:00;;;;;;;13.82;11.52;;;29.20;56.30;;;;;;5042236;28;20234;-74
2020/12/20 12:57:33;;;;;;;12.32;9.55;;;29.20;56.60;;;;;;5044609;28;20267;-74
2020/12/20 13:00:05;;;;;;;12.23;10.93;;;29.20;56.50;;;;;;5045013;28;20232;-75
2020/12/20 13:02:37;;;;;;;14.07;12.60;;;29.10;56.50;;;;;;5044853;28;20245;-75
2020/12/20 13:05:07;;;;;;;13.10;10.90;;;29.10;56.50;;;;;;5041902;28;20812;-74
2020/12/20 13:07:41;;;;;;;11.85;10.07;;;29.00;56.80;;;;;;5034559;28;20257;-74